createdAt,value
2022-08-01T00:00:33.558Z,997.77
2022-08-01T00:01:33.549Z,997.77
2022-08-01T00:02:33.589Z,997.76
2022-08-01T00:03:33.529Z,997.78
2022-08-01T00:04:33.529Z,997.79
2022-08-01T00:05:33.503Z,997.80
2022-08-01T00:06:33.490Z,997.78
2022-08-01T00:07:33.481Z,997.86
2022-08-01T00:08:33.468Z,997.80
2022-08-01T00:09:33.511Z,997.88
2022-08-01T00:10:33.448Z,997.82
2022-08-01T00:11:33.440Z,997.85
2022-08-01T00:12:33.433Z,997.77
2022-08-01T00:13:33.411Z,997.82
2022-08-01T00:14:33.402Z,997.86
2022-08-01T00:15:33.416Z,997.83
2022-08-01T00:16:33.382Z,997.83
2022-08-01T00:17:33.370Z,997.84
2022-08-01T00:18:33.361Z,997.82
2022-08-01T00:19:33.353Z,997.83
2022-08-01T00:20:33.357Z,997.78
2022-08-01T00:21:33.334Z,997.87
2022-08-01T00:22:33.311Z,997.92
2022-08-01T00:23:33.302Z,997.86
2022-08-01T00:24:33.295Z,997.84
2022-08-01T00:25:33.699Z,997.90
2022-08-01T00:26:33.283Z,997.90
2022-08-01T00:27:33.262Z,997.84
2022-08-01T00:28:33.243Z,997.88
2022-08-01T00:30:13.385Z,997.82
2022-08-01T00:30:34.223Z,997.87
2022-08-01T00:31:33.243Z,997.87
2022-08-01T00:32:33.194Z,997.85
2022-08-01T00:33:33.194Z,997.85
2022-08-01T00:34:33.183Z,997.84
2022-08-01T00:35:33.168Z,997.84
2022-08-01T00:36:33.153Z,997.86
2022-08-01T00:37:33.163Z,997.81
2022-08-01T00:38:33.173Z,997.82
2022-08-01T00:39:33.124Z,997.83
2022-08-01T00:40:33.114Z,997.85
2022-08-01T00:41:33.094Z,997.87
2022-08-01T00:42:33.086Z,997.79
2022-08-01T00:43:33.095Z,997.81
2022-08-01T00:44:33.064Z,997.84
2022-08-01T00:45:33.059Z,997.79
2022-08-01T00:46:33.047Z,997.79
2022-08-01T00:47:33.037Z,997.80
2022-08-01T00:48:33.036Z,997.78
2022-08-01T00:49:33.055Z,997.79
2022-08-01T00:50:32.995Z,997.76
2022-08-01T00:51:32.985Z,997.76
2022-08-01T00:52:32.977Z,997.71
2022-08-01T00:53:50.714Z,997.71
2022-08-01T00:54:33.968Z,997.74
2022-08-01T00:55:32.939Z,997.69
2022-08-01T00:56:32.927Z,997.70
2022-08-01T00:58:02.174Z,997.67
2022-08-01T00:58:33.906Z,997.65
2022-08-01T00:59:32.895Z,997.67
2022-08-01T01:00:34.867Z,997.69
2022-08-01T01:01:39.523Z,997.62
2022-08-01T01:02:33.861Z,997.68
2022-08-01T01:03:57.609Z,997.66
2022-08-01T01:04:33.837Z,997.62
2022-08-01T01:05:37.080Z,997.64
2022-08-01T01:06:32.829Z,997.63
2022-08-01T01:07:32.808Z,997.67
2022-08-01T01:08:32.787Z,997.63
2022-08-01T01:09:32.778Z,997.64
2022-08-01T01:10:32.769Z,997.68
2022-08-01T01:11:32.799Z,997.74
2022-08-01T01:12:37.417Z,997.68
2022-08-01T01:13:33.738Z,997.74
2022-08-01T01:14:32.719Z,997.69
2022-08-01T01:15:32.709Z,997.71
2022-08-01T01:16:32.700Z,997.68
2022-08-01T01:17:51.188Z,997.69
2022-08-01T01:18:33.672Z,997.68
2022-08-01T01:19:32.669Z,997.68
2022-08-01T01:20:32.649Z,997.74
2022-08-01T01:21:32.640Z,997.71
2022-08-01T01:22:32.630Z,997.67
2022-08-01T01:23:32.640Z,997.68
2022-08-01T01:24:32.610Z,997.72
2022-08-01T01:25:32.598Z,997.75
2022-08-01T01:26:32.592Z,997.71
2022-08-01T01:27:32.574Z,997.70
2022-08-01T01:28:32.560Z,997.71
2022-08-01T01:29:58.484Z,997.70
2022-08-01T01:30:33.541Z,997.72
2022-08-01T01:31:32.530Z,997.77
2022-08-01T01:32:32.521Z,997.77
2022-08-01T01:33:32.503Z,997.75
2022-08-01T01:34:32.491Z,997.78
2022-08-01T01:35:32.502Z,997.78
2022-08-01T01:36:32.471Z,997.78
2022-08-01T01:37:32.451Z,997.77
2022-08-01T01:38:32.452Z,997.75
2022-08-01T01:39:32.432Z,997.77
2022-08-01T01:40:32.438Z,997.80
2022-08-01T01:41:32.432Z,997.82
2022-08-01T01:42:32.404Z,997.87
2022-08-01T01:43:33.426Z,997.82
2022-08-01T01:44:32.381Z,997.79
2022-08-01T01:45:32.363Z,997.85
2022-08-01T01:46:32.356Z,997.81
2022-08-01T01:47:32.363Z,997.80
2022-08-01T01:48:32.335Z,997.83
2022-08-01T01:49:32.355Z,997.86
2022-08-01T01:50:32.312Z,997.85
2022-08-01T01:51:32.297Z,997.88
2022-08-01T01:52:32.284Z,997.85
2022-08-01T01:53:32.287Z,997.90
2022-08-01T01:54:32.270Z,997.83
2022-08-01T01:55:32.245Z,997.77
2022-08-01T01:56:32.238Z,997.79
2022-08-01T01:57:32.224Z,997.79
2022-08-01T01:58:32.237Z,997.80
2022-08-01T01:59:32.205Z,997.77
2022-08-01T02:00:32.194Z,997.75
2022-08-01T02:02:08.241Z,997.77
2022-08-01T02:02:33.222Z,997.73
2022-08-01T02:03:32.157Z,997.74
2022-08-01T02:04:32.166Z,997.71
2022-08-01T02:05:32.135Z,997.74
2022-08-01T02:06:32.126Z,997.70
2022-08-01T02:07:32.106Z,997.71
2022-08-01T02:08:32.097Z,997.66
2022-08-01T02:09:32.089Z,997.68
2022-08-01T02:10:32.097Z,997.70
2022-08-01T02:11:32.068Z,997.71
2022-08-01T02:12:32.059Z,997.73
2022-08-01T02:13:32.055Z,997.76
2022-08-01T02:14:32.036Z,997.81
2022-08-01T02:15:32.067Z,997.78
2022-08-01T02:16:32.008Z,997.81
2022-08-01T02:17:32.012Z,997.76
2022-08-01T02:18:31.989Z,997.77
2022-08-01T02:19:31.968Z,997.72
2022-08-01T02:20:31.969Z,997.69
2022-08-01T02:21:31.969Z,997.76
2022-08-01T02:22:31.948Z,997.72
2022-08-01T02:23:31.953Z,997.75
2022-08-01T02:24:31.919Z,997.76
2022-08-01T02:25:31.911Z,997.74
2022-08-01T02:26:31.891Z,997.75
2022-08-01T02:27:31.899Z,997.76
2022-08-01T02:28:31.879Z,997.80
2022-08-01T02:29:31.858Z,997.81
2022-08-01T02:30:31.850Z,997.82
2022-08-01T02:31:31.835Z,997.78
2022-08-01T02:32:31.860Z,997.82
2022-08-01T02:33:31.811Z,997.81
2022-08-01T02:34:31.801Z,997.86
2022-08-01T02:35:31.791Z,997.91
2022-08-01T02:36:33.455Z,997.93
2022-08-01T02:37:31.772Z,997.93
2022-08-01T02:38:31.771Z,997.91
2022-08-01T02:39:31.746Z,997.92
2022-08-01T02:40:31.742Z,997.91
2022-08-01T02:41:31.730Z,997.92
2022-08-01T02:42:31.715Z,997.97
2022-08-01T02:43:31.732Z,997.97
2022-08-01T02:44:31.692Z,997.98
2022-08-01T02:45:31.682Z,997.99
2022-08-01T02:46:31.680Z,997.96
2022-08-01T02:47:31.664Z,998.05
2022-08-01T02:48:31.653Z,997.94
2022-08-01T02:49:31.680Z,997.97
2022-08-01T02:50:31.633Z,998.01
2022-08-01T02:51:31.615Z,998.01
2022-08-01T02:52:31.625Z,997.95
2022-08-01T02:53:41.614Z,998.05
2022-08-01T02:54:32.603Z,997.95
2022-08-01T02:55:31.564Z,997.97
2022-08-01T02:56:38.629Z,997.99
2022-08-01T02:57:47.312Z,998.02
2022-08-01T02:58:32.546Z,997.92
2022-08-01T02:59:31.528Z,997.99
2022-08-01T03:00:31.556Z,997.97
2022-08-01T03:01:31.567Z,997.98
2022-08-01T03:02:31.497Z,997.97
2022-08-01T03:03:31.480Z,997.97
2022-08-01T03:04:31.479Z,997.99
2022-08-01T03:05:31.455Z,997.94
2022-08-01T03:06:31.469Z,997.97
2022-08-01T03:07:34.139Z,998.01
2022-08-01T03:08:31.429Z,997.98
2022-08-01T03:09:31.409Z,998.02
2022-08-01T03:10:31.400Z,997.95
2022-08-01T03:11:31.389Z,998.01
2022-08-01T03:12:31.401Z,997.97
2022-08-01T03:13:31.362Z,997.94
2022-08-01T03:14:31.349Z,997.93
2022-08-01T03:15:31.340Z,997.97
2022-08-01T03:16:31.341Z,997.93
2022-08-01T03:17:31.367Z,997.96
2022-08-01T03:18:31.322Z,997.98
2022-08-01T03:19:31.292Z,998.00
2022-08-01T03:20:31.293Z,998.03
2022-08-01T03:21:31.271Z,998.00
2022-08-01T03:22:31.272Z,998.03
2022-08-01T03:23:38.313Z,997.97
2022-08-01T03:24:32.239Z,998.01
2022-08-01T03:25:31.233Z,998.00
2022-08-01T03:26:31.211Z,997.96
2022-08-01T03:27:31.201Z,997.97
2022-08-01T03:28:31.220Z,998.06
2022-08-01T03:29:31.194Z,997.99
2022-08-01T03:30:31.173Z,998.05
2022-08-01T03:31:31.161Z,998.03
2022-08-01T03:32:31.142Z,997.97
2022-08-01T03:33:31.135Z,997.99
2022-08-01T03:34:31.143Z,998.04
2022-08-01T03:35:31.104Z,998.04
2022-08-01T03:36:31.106Z,998.03
2022-08-01T03:37:31.083Z,998.00
2022-08-01T03:38:31.083Z,998.00
2022-08-01T03:39:31.075Z,997.98
2022-08-01T03:40:31.053Z,998.00
2022-08-01T03:41:31.035Z,997.98
2022-08-01T03:42:31.033Z,997.99
2022-08-01T03:43:31.014Z,997.95
2022-08-01T03:44:31.029Z,997.98
2022-08-01T03:45:30.984Z,998.01
2022-08-01T03:46:30.984Z,998.00
2022-08-01T03:47:30.965Z,998.00
2022-08-01T03:48:30.954Z,998.00
2022-08-01T03:49:31.027Z,997.96
2022-08-01T03:50:30.955Z,997.95
2022-08-01T03:51:30.936Z,998.00
2022-08-01T03:52:30.920Z,997.99
2022-08-01T03:53:30.896Z,997.98
2022-08-01T03:54:30.895Z,997.99
2022-08-01T03:55:30.897Z,998.02
2022-08-01T03:56:30.865Z,997.97
2022-08-01T03:57:36.540Z,998.03
2022-08-01T03:58:31.850Z,997.98
2022-08-01T03:59:30.826Z,998.04
2022-08-01T04:00:30.826Z,998.04
2022-08-01T04:01:30.900Z,998.04
2022-08-01T04:02:30.806Z,998.02
2022-08-01T04:03:30.786Z,998.06
2022-08-01T04:04:30.777Z,998.06
2022-08-01T04:05:30.807Z,998.08
2022-08-01T04:06:30.777Z,998.07
2022-08-01T04:07:30.747Z,998.09
2022-08-01T04:08:30.738Z,998.07
2022-08-01T04:09:30.725Z,998.10
2022-08-01T04:10:30.709Z,998.08
2022-08-01T04:11:30.697Z,998.10
2022-08-01T04:12:30.717Z,998.14
2022-08-01T04:13:37.141Z,998.12
2022-08-01T04:14:31.668Z,998.13
2022-08-01T04:15:30.649Z,998.14
2022-08-01T04:16:30.647Z,998.17
2022-08-01T04:17:30.635Z,998.19
2022-08-01T04:18:30.700Z,998.13
2022-08-01T04:19:30.608Z,998.17
2022-08-01T04:20:30.599Z,998.17
2022-08-01T04:21:30.699Z,998.19
2022-08-01T04:22:30.577Z,998.20
2022-08-01T04:23:30.559Z,998.20
2022-08-01T04:24:30.639Z,998.25
2022-08-01T04:25:30.537Z,998.17
2022-08-01T04:26:30.529Z,998.22
2022-08-01T04:27:50.031Z,998.22
2022-08-01T04:28:31.513Z,998.20
2022-08-01T04:29:30.521Z,998.27
2022-08-01T04:30:30.480Z,998.25
2022-08-01T04:31:30.471Z,998.24
2022-08-01T04:32:30.461Z,998.27
2022-08-01T04:33:30.449Z,998.27
2022-08-01T04:34:30.440Z,998.29
2022-08-01T04:36:01.757Z,998.23
2022-08-01T04:36:31.422Z,998.25
2022-08-01T04:37:30.399Z,998.30
2022-08-01T04:38:30.395Z,998.25
2022-08-01T04:39:30.382Z,998.28
2022-08-01T04:40:30.362Z,998.25
2022-08-01T04:41:30.372Z,998.29
2022-08-01T04:42:33.578Z,998.27
2022-08-01T04:43:30.331Z,998.31
2022-08-01T04:44:32.715Z,998.26
2022-08-01T04:45:30.304Z,998.29
2022-08-01T04:46:30.300Z,998.29
2022-08-01T04:47:30.303Z,998.31
2022-08-01T04:48:30.285Z,998.32
2022-08-01T04:49:30.298Z,998.28
2022-08-01T04:50:30.397Z,998.20
2022-08-01T04:51:30.233Z,998.25
2022-08-01T04:52:30.225Z,998.21
2022-08-01T04:53:30.245Z,998.22
2022-08-01T04:54:30.207Z,998.26
2022-08-01T04:55:30.193Z,998.25
2022-08-01T04:56:30.183Z,998.30
2022-08-01T04:57:30.164Z,998.27
2022-08-01T04:58:30.162Z,998.34
2022-08-01T04:59:30.154Z,998.34
2022-08-01T05:00:30.144Z,998.34
2022-08-01T05:01:30.157Z,998.32
2022-08-01T05:02:30.126Z,998.38
2022-08-01T05:03:30.094Z,998.41
2022-08-01T05:04:30.114Z,998.37
2022-08-01T05:05:30.065Z,998.45
2022-08-01T05:06:30.065Z,998.41
2022-08-01T05:07:30.046Z,998.41
2022-08-01T05:08:30.045Z,998.42
2022-08-01T05:09:31.282Z,998.46
2022-08-01T05:10:30.037Z,998.48
2022-08-01T05:11:30.003Z,998.47
2022-08-01T05:12:29.998Z,998.49
2022-08-01T05:13:29.977Z,998.48
2022-08-01T05:14:29.966Z,998.46
2022-08-01T05:15:29.956Z,998.41
2022-08-01T05:16:29.986Z,998.42
2022-08-01T05:17:29.937Z,998.46
2022-08-01T05:18:29.928Z,998.49
2022-08-01T05:19:29.916Z,998.48
2022-08-01T05:20:29.907Z,998.51
2022-08-01T05:21:29.918Z,998.46
2022-08-01T05:22:29.897Z,998.51
2022-08-01T05:23:37.761Z,998.50
2022-08-01T05:24:30.883Z,998.57
2022-08-01T05:25:49.651Z,998.58
2022-08-01T05:26:30.858Z,998.59
2022-08-01T05:27:29.829Z,998.57
2022-08-01T05:28:29.817Z,998.58
2022-08-01T05:29:29.811Z,998.59
2022-08-01T05:30:29.798Z,998.64
2022-08-01T05:31:29.789Z,998.55
2022-08-01T05:32:29.796Z,998.61
2022-08-01T05:33:29.769Z,998.60
2022-08-01T05:34:29.752Z,998.61
2022-08-01T05:35:48.636Z,998.66
2022-08-01T05:36:30.728Z,998.63
2022-08-01T05:37:29.742Z,998.66
2022-08-01T05:38:29.700Z,998.64
2022-08-01T05:39:29.690Z,998.67
2022-08-01T05:40:29.680Z,998.67
2022-08-01T05:41:29.671Z,998.67
2022-08-01T05:42:29.682Z,998.67
2022-08-01T05:43:29.682Z,998.64
2022-08-01T05:44:29.640Z,998.66
2022-08-01T05:45:29.633Z,998.67
2022-08-01T05:46:29.612Z,998.66
2022-08-01T05:47:29.611Z,998.71
2022-08-01T05:48:29.592Z,998.75
2022-08-01T05:49:29.705Z,998.74
2022-08-01T05:50:29.572Z,998.71
2022-08-01T05:51:29.564Z,998.75
2022-08-01T05:52:29.554Z,998.80
2022-08-01T05:53:29.552Z,998.83
2022-08-01T05:54:29.534Z,998.75
2022-08-01T05:55:29.546Z,998.77
2022-08-01T05:56:32.333Z,998.78
2022-08-01T05:57:29.496Z,998.79
2022-08-01T05:58:29.485Z,998.79
2022-08-01T05:59:29.502Z,998.78
2022-08-01T06:00:29.462Z,998.81
2022-08-01T06:01:29.463Z,998.85
2022-08-01T06:02:29.519Z,998.83
2022-08-01T06:03:29.424Z,998.82
2022-08-01T06:04:29.414Z,998.89
2022-08-01T06:05:29.404Z,998.83
2022-08-01T06:06:29.425Z,998.83
2022-08-01T06:07:29.385Z,998.82
2022-08-01T06:08:29.367Z,998.86
2022-08-01T06:09:29.369Z,998.86
2022-08-01T06:10:29.486Z,998.89
2022-08-01T06:11:29.338Z,998.85
2022-08-01T06:12:32.494Z,998.90
2022-08-01T06:13:30.317Z,998.89
2022-08-01T06:14:29.317Z,998.93
2022-08-01T06:15:29.296Z,998.87
2022-08-01T06:16:29.299Z,998.92
2022-08-01T06:17:29.318Z,998.88
2022-08-01T06:18:29.286Z,998.94
2022-08-01T06:19:29.323Z,998.96
2022-08-01T06:20:29.247Z,998.98
2022-08-01T06:21:29.228Z,998.94
2022-08-01T06:22:29.217Z,998.97
2022-08-01T06:23:32.013Z,999.04
2022-08-01T06:24:29.242Z,998.96
2022-08-01T06:25:29.198Z,998.96
2022-08-01T06:26:29.169Z,998.97
2022-08-01T06:27:29.160Z,999.00
2022-08-01T06:28:29.147Z,999.01
2022-08-01T06:29:29.139Z,998.97
2022-08-01T06:30:29.141Z,998.99
2022-08-01T06:31:33.417Z,998.98
2022-08-01T06:32:29.100Z,998.97
2022-08-01T06:33:29.090Z,998.92
2022-08-01T06:34:29.079Z,998.92
2022-08-01T06:35:29.091Z,998.90
2022-08-01T06:36:29.058Z,999.00
2022-08-01T06:37:29.049Z,998.99
2022-08-01T06:38:29.030Z,999.02
2022-08-01T06:39:29.031Z,998.99
2022-08-01T06:40:29.012Z,998.98
2022-08-01T06:41:29.041Z,998.97
2022-08-01T06:42:28.990Z,999.00
2022-08-01T06:43:28.984Z,998.94
2022-08-01T06:44:28.969Z,998.98
2022-08-01T06:45:28.974Z,999.02
2022-08-01T06:46:30.252Z,999.00
2022-08-01T06:47:28.965Z,999.04
2022-08-01T06:48:28.949Z,999.01
2022-08-01T06:49:28.976Z,999.00
2022-08-01T06:50:28.901Z,999.02
2022-08-01T06:51:28.893Z,999.07
2022-08-01T06:52:28.875Z,999.09
2022-08-01T06:53:30.092Z,999.12
2022-08-01T06:54:28.852Z,999.08
2022-08-01T06:55:28.843Z,999.14
2022-08-01T06:56:28.833Z,999.09
2022-08-01T06:57:28.823Z,999.10
2022-08-01T06:58:28.815Z,999.09
2022-08-01T06:59:28.825Z,999.10
2022-08-01T07:00:28.816Z,999.09
2022-08-01T07:01:28.811Z,999.09
2022-08-01T07:02:28.794Z,999.05
2022-08-01T07:03:44.562Z,999.14
2022-08-01T07:04:29.772Z,999.09
2022-08-01T07:05:28.735Z,999.09
2022-08-01T07:06:28.717Z,999.07
2022-08-01T07:07:28.716Z,999.04
2022-08-01T07:08:28.705Z,999.05
2022-08-01T07:09:28.685Z,999.03
2022-08-01T07:10:28.696Z,999.04
2022-08-01T07:11:28.675Z,999.05
2022-08-01T07:12:28.653Z,999.04
2022-08-01T07:13:36.687Z,999.04
2022-08-01T07:14:29.647Z,999.06
2022-08-01T07:15:28.657Z,998.99
2022-08-01T07:16:28.614Z,998.99
2022-08-01T07:17:28.607Z,999.02
2022-08-01T07:18:28.587Z,998.99
2022-08-01T07:19:28.578Z,999.01
2022-08-01T07:20:28.568Z,998.96
2022-08-01T07:21:39.286Z,999.01
2022-08-01T07:22:29.538Z,998.97
2022-08-01T07:23:30.446Z,999.01
2022-08-01T07:24:29.527Z,998.94
2022-08-01T07:25:28.527Z,998.90
2022-08-01T07:26:28.570Z,999.03
2022-08-01T07:27:28.556Z,998.97
2022-08-01T07:28:28.483Z,998.98
2022-08-01T07:29:28.474Z,998.99
2022-08-01T07:30:28.450Z,999.10
2022-08-01T07:31:32.026Z,999.05
2022-08-01T07:32:28.438Z,999.05
2022-08-01T07:33:28.452Z,999.01
2022-08-01T07:34:29.413Z,999.00
2022-08-01T07:35:28.408Z,998.97
2022-08-01T07:36:28.390Z,999.03
2022-08-01T07:37:42.092Z,999.06
2022-08-01T07:38:29.392Z,999.07
2022-08-01T07:39:28.360Z,999.05
2022-08-01T07:40:28.351Z,999.06
2022-08-01T07:41:53.604Z,999.03
2022-08-01T07:42:29.325Z,999.05
2022-08-01T07:43:28.325Z,999.02
2022-08-01T07:44:29.163Z,999.01
2022-08-01T07:45:28.298Z,998.99
2022-08-01T07:46:28.272Z,998.99
2022-08-01T07:47:28.280Z,999.02
2022-08-01T07:48:28.264Z,998.94
2022-08-01T07:49:28.320Z,999.01
2022-08-01T07:50:28.258Z,998.94
2022-08-01T07:51:29.231Z,998.92
2022-08-01T07:52:28.217Z,998.95
2022-08-01T07:53:28.215Z,998.93
2022-08-01T07:54:33.559Z,999.01
2022-08-01T07:55:29.204Z,998.97
2022-08-01T07:56:28.197Z,999.01
2022-08-01T07:57:28.182Z,998.93
2022-08-01T07:58:28.154Z,998.97
2022-08-01T07:59:28.169Z,998.95
2022-08-01T08:00:28.135Z,999.01
2022-08-01T08:01:28.193Z,999.00
2022-08-01T08:02:28.150Z,999.04
2022-08-01T08:03:28.095Z,999.03
2022-08-01T08:04:28.078Z,998.98
2022-08-01T08:05:58.371Z,999.03
2022-08-01T08:06:29.057Z,998.99
2022-08-01T08:07:28.075Z,999.05
2022-08-01T08:08:28.036Z,999.03
2022-08-01T08:09:28.029Z,999.02
2022-08-01T08:10:28.014Z,999.03
2022-08-01T08:11:28.007Z,998.96
2022-08-01T08:12:28.905Z,999.02
2022-08-01T08:13:28.016Z,998.98
2022-08-01T08:14:32.238Z,999.07
2022-08-01T08:15:28.969Z,998.98
2022-08-01T08:16:27.951Z,999.09
2022-08-01T08:17:27.939Z,999.05
2022-08-01T08:18:28.010Z,999.07
2022-08-01T08:19:38.540Z,999.06
2022-08-01T08:20:28.908Z,999.06
2022-08-01T08:21:27.910Z,999.05
2022-08-01T08:22:27.881Z,999.04
2022-08-01T08:23:43.015Z,999.08
2022-08-01T08:24:28.880Z,999.11
2022-08-01T08:25:27.860Z,999.06
2022-08-01T08:26:27.842Z,999.08
2022-08-01T08:27:27.851Z,999.07
2022-08-01T08:28:28.330Z,999.06
2022-08-01T08:29:27.842Z,999.07
2022-08-01T08:30:27.792Z,999.06
2022-08-01T08:31:51.917Z,999.11
2022-08-01T08:32:28.782Z,999.08
2022-08-01T08:33:27.773Z,999.06
2022-08-01T08:34:27.765Z,999.15
2022-08-01T08:35:40.265Z,999.12
2022-08-01T08:36:31.138Z,999.10
2022-08-01T08:37:31.428Z,999.04
2022-08-01T08:38:30.068Z,999.10
2022-08-01T08:39:27.714Z,999.09
2022-08-01T08:40:27.760Z,999.11
2022-08-01T08:41:27.695Z,999.11
2022-08-01T08:42:28.674Z,999.12
2022-08-01T08:43:27.659Z,999.09
2022-08-01T08:44:27.651Z,999.09
2022-08-01T08:45:58.063Z,999.08
2022-08-01T08:46:28.637Z,999.15
2022-08-01T08:47:27.626Z,999.09
2022-08-01T08:48:27.916Z,999.21
2022-08-01T08:49:27.608Z,999.27
2022-08-01T08:50:28.578Z,999.47
2022-08-01T08:51:27.588Z,999.15
2022-08-01T08:52:27.588Z,999.03
2022-08-01T08:53:34.452Z,999.16
2022-08-01T08:54:31.212Z,999.46
2022-08-01T08:55:27.528Z,999.47
2022-08-01T08:56:28.299Z,999.52
2022-08-01T08:57:34.577Z,999.56
2022-08-01T08:58:31.452Z,999.42
2022-08-01T08:59:28.494Z,999.26
2022-08-01T09:00:29.097Z,999.15
2022-08-01T09:01:27.471Z,999.20
2022-08-01T09:02:27.477Z,999.30
2022-08-01T09:03:27.530Z,999.44
2022-08-01T09:04:27.436Z,999.58
2022-08-01T09:05:39.122Z,999.59
2022-08-01T09:06:28.411Z,999.60
2022-08-01T09:07:27.402Z,999.31
2022-08-01T09:08:27.391Z,999.15
2022-08-01T09:09:27.419Z,999.16
2022-08-01T09:10:27.370Z,999.11
2022-08-01T09:11:27.430Z,999.13
2022-08-01T09:12:27.370Z,999.55
2022-08-01T09:13:27.340Z,999.48
2022-08-01T09:14:27.373Z,999.23
2022-08-01T09:15:27.323Z,999.15
2022-08-01T09:16:28.312Z,999.15
2022-08-01T09:17:27.301Z,999.10
2022-08-01T09:18:27.290Z,999.13
2022-08-01T09:19:40.106Z,999.12
2022-08-01T09:20:28.395Z,999.16
2022-08-01T09:21:27.324Z,999.13
2022-08-01T09:22:27.260Z,999.19
2022-08-01T09:23:27.236Z,999.15
2022-08-01T09:24:30.691Z,999.20
2022-08-01T09:25:29.852Z,999.32
2022-08-01T09:26:28.225Z,999.19
2022-08-01T09:27:27.195Z,999.18
2022-08-01T09:28:27.178Z,999.18
2022-08-01T09:29:37.668Z,999.15
2022-08-01T09:30:28.156Z,999.18
2022-08-01T09:31:27.166Z,999.33
2022-08-01T09:32:32.789Z,999.14
2022-08-01T09:33:28.127Z,999.24
2022-08-01T09:34:27.118Z,999.21
2022-08-01T09:35:29.982Z,999.22
2022-08-01T09:36:27.097Z,999.17
2022-08-01T09:37:27.108Z,999.17
2022-08-01T09:38:28.105Z,999.11
2022-08-01T09:39:27.075Z,999.45
2022-08-01T09:40:27.052Z,999.13
2022-08-01T09:41:27.039Z,999.10
2022-08-01T09:42:28.394Z,999.06
2022-08-01T09:43:27.103Z,999.47
2022-08-01T09:44:31.420Z,999.49
2022-08-01T09:45:27.990Z,999.33
2022-08-01T09:46:28.607Z,999.04
2022-08-01T09:47:26.971Z,999.03
2022-08-01T09:48:28.512Z,999.01
2022-08-01T09:49:27.014Z,999.05
2022-08-01T09:50:27.943Z,999.02
2022-08-01T09:51:59.658Z,999.03
2022-08-01T09:52:28.916Z,999.05
2022-08-01T09:53:30.182Z,999.02
2022-08-01T09:54:26.902Z,998.96
2022-08-01T09:55:26.882Z,999.04
2022-08-01T09:56:26.888Z,999.03
2022-08-01T09:57:26.863Z,999.00
2022-08-01T09:58:26.853Z,998.99
2022-08-01T09:59:40.992Z,999.01
2022-08-01T10:00:44.381Z,999.03
2022-08-01T10:01:36.716Z,999.03
2022-08-01T10:02:27.805Z,999.00
2022-08-01T10:03:26.830Z,999.03
2022-08-01T10:04:26.785Z,998.97
2022-08-01T10:05:26.791Z,998.99
2022-08-01T10:06:26.776Z,998.94
2022-08-01T10:07:42.554Z,998.93
2022-08-01T10:08:27.737Z,998.97
2022-08-01T10:09:26.729Z,999.01
2022-08-01T10:10:28.794Z,998.96
2022-08-01T10:11:36.130Z,998.92
2022-08-01T10:12:27.710Z,998.94
2022-08-01T10:13:26.689Z,998.93
2022-08-01T10:14:27.682Z,998.95
2022-08-01T10:15:37.210Z,998.97
2022-08-01T10:16:27.679Z,998.95
2022-08-01T10:17:50.050Z,998.96
2022-08-01T10:18:27.638Z,998.92
2022-08-01T10:19:28.859Z,998.96
2022-08-01T10:20:30.174Z,998.92
2022-08-01T10:21:56.899Z,998.92
2022-08-01T10:22:27.625Z,998.94
2022-08-01T10:23:40.836Z,998.97
2022-08-01T10:24:27.571Z,998.94
2022-08-01T10:25:42.417Z,998.92
2022-08-01T10:26:27.561Z,998.90
2022-08-01T10:27:37.899Z,998.84
2022-08-01T10:28:27.551Z,998.95
2022-08-01T10:29:59.880Z,998.94
2022-08-01T10:30:27.513Z,998.89
2022-08-01T10:31:30.695Z,998.92
2022-08-01T10:32:28.785Z,998.87
2022-08-01T10:33:51.575Z,998.90
2022-08-01T10:34:27.491Z,998.92
2022-08-01T10:35:47.520Z,998.86
2022-08-01T10:36:27.456Z,998.89
2022-08-01T10:37:26.842Z,998.83
2022-08-01T10:38:26.426Z,998.89
2022-08-01T10:39:26.436Z,998.84
2022-08-01T10:40:29.944Z,998.85
2022-08-01T10:41:26.385Z,998.84
2022-08-01T10:42:26.386Z,998.80
2022-08-01T10:43:26.368Z,998.76
2022-08-01T10:44:26.365Z,998.77
2022-08-01T10:45:26.366Z,998.75
2022-08-01T10:46:26.336Z,998.75
2022-08-01T10:47:50.034Z,998.73
2022-08-01T10:48:27.320Z,998.79
2022-08-01T10:49:26.356Z,998.80
2022-08-01T10:50:26.393Z,998.72
2022-08-01T10:51:51.125Z,998.71
2022-08-01T10:52:27.279Z,998.74
2022-08-01T10:53:31.584Z,998.72
2022-08-01T10:54:27.277Z,998.66
2022-08-01T10:55:26.251Z,998.72
2022-08-01T10:56:26.949Z,998.71
2022-08-01T10:57:27.553Z,998.70
2022-08-01T10:58:26.219Z,998.65
2022-08-01T10:59:49.294Z,998.70
2022-08-01T11:00:27.190Z,998.67
2022-08-01T11:01:26.543Z,998.65
2022-08-01T11:02:26.202Z,998.60
2022-08-01T11:03:54.482Z,998.60
2022-08-01T11:04:27.152Z,998.55
2022-08-01T11:05:26.141Z,998.62
2022-08-01T11:06:26.131Z,998.58
2022-08-01T11:07:26.144Z,998.59
2022-08-01T11:08:27.132Z,998.54
2022-08-01T11:09:30.449Z,998.64
2022-08-01T11:10:27.103Z,998.62
2022-08-01T11:11:26.074Z,998.64
2022-08-01T11:12:26.089Z,998.61
2022-08-01T11:13:26.052Z,998.67
2022-08-01T11:14:46.748Z,998.69
2022-08-01T11:15:30.218Z,998.62
2022-08-01T11:16:26.026Z,998.57
2022-08-01T11:17:26.006Z,998.59
2022-08-01T11:18:27.380Z,998.65
2022-08-01T11:19:25.986Z,998.59
2022-08-01T11:20:25.995Z,998.61
2022-08-01T11:21:59.305Z,998.62
2022-08-01T11:22:26.956Z,998.60
2022-08-01T11:23:25.945Z,998.58
2022-08-01T11:24:25.936Z,998.63
2022-08-01T11:26:05.732Z,998.57
2022-08-01T11:26:29.117Z,998.61
2022-08-01T11:27:25.898Z,998.58
2022-08-01T11:28:32.070Z,998.56
2022-08-01T11:29:26.879Z,998.52
2022-08-01T11:30:25.871Z,998.49
2022-08-01T11:31:25.856Z,998.49
2022-08-01T11:32:25.917Z,998.43
2022-08-01T11:33:25.839Z,998.48
2022-08-01T11:34:25.830Z,998.48
2022-08-01T11:35:25.835Z,998.51
2022-08-01T11:36:56.636Z,998.48
2022-08-01T11:37:30.405Z,998.49
2022-08-01T11:38:25.791Z,998.48
2022-08-01T11:39:25.771Z,998.50
2022-08-01T11:40:25.761Z,998.50
2022-08-01T11:41:38.102Z,998.51
2022-08-01T11:42:26.857Z,998.50
2022-08-01T11:43:25.757Z,998.49
2022-08-01T11:44:25.721Z,998.46
2022-08-01T11:45:25.731Z,998.43
2022-08-01T11:46:25.702Z,998.38
2022-08-01T11:47:25.713Z,998.43
2022-08-01T11:48:27.758Z,998.42
2022-08-01T11:49:25.763Z,998.39
2022-08-01T11:50:25.653Z,998.43
2022-08-01T11:51:25.811Z,998.35
2022-08-01T11:52:25.633Z,998.26
2022-08-01T11:53:27.018Z,998.21
2022-08-01T11:54:35.044Z,998.20
2022-08-01T11:55:26.605Z,998.18
2022-08-01T11:56:28.800Z,998.21
2022-08-01T11:57:34.532Z,998.22
2022-08-01T11:58:27.753Z,998.26
2022-08-01T11:59:25.554Z,998.26
2022-08-01T12:00:26.567Z,998.27
2022-08-01T12:01:25.534Z,998.23
2022-08-01T12:02:30.652Z,998.30
2022-08-01T12:03:33.601Z,998.33
2022-08-01T12:04:26.497Z,998.30
2022-08-01T12:05:25.487Z,998.24
2022-08-01T12:06:25.586Z,998.23
2022-08-01T12:07:25.467Z,998.18
2022-08-01T12:08:25.457Z,998.22
2022-08-01T12:09:25.448Z,998.33
2022-08-01T12:10:25.437Z,998.26
2022-08-01T12:11:25.420Z,998.16
2022-08-01T12:12:26.439Z,998.28
2022-08-01T12:13:25.402Z,998.28
2022-08-01T12:14:25.391Z,998.30
2022-08-01T12:15:25.398Z,998.28
2022-08-01T12:16:27.618Z,998.29
2022-08-01T12:17:26.352Z,998.28
2022-08-01T12:18:25.360Z,998.27
2022-08-01T12:19:25.331Z,998.30
2022-08-01T12:20:25.324Z,998.31
2022-08-01T12:21:25.321Z,998.31
2022-08-01T12:22:25.316Z,998.27
2022-08-01T12:23:25.321Z,998.28
2022-08-01T12:24:25.281Z,998.22
2022-08-01T12:25:25.265Z,998.22
2022-08-01T12:26:26.593Z,998.24
2022-08-01T12:27:26.245Z,998.27
2022-08-01T12:28:25.244Z,998.23